ADDS METAR Data INFO
IDs: Format: Raw Decoded Include TAF

Data at: 0141 UTC 26 Feb 2018

KDCA 260112Z 00000KT 7SM SCT009 OVC180 11/11 A3001 RMK AO2 T01110111
KDCA 260052Z 09003KT 9SM OVC008 12/11 A3001 RMK AO2 SLP161 T01170111
KDCA 260006Z 00000KT 6SM BR OVC008 11/11 A3000 RMK AO2 T01110111
KDCA 252352Z 15003KT 7SM OVC007 12/11 A3000 RMK AO2 SLP157 60000 T01170106 10117 20106 53012
KDCA 252252Z 16005KT 7SM BKN007 OVC160 12/11 A2997 RMK AO2 SLP147 T01170111
KDCA 252152Z 17006KT 9SM OVC007 11/11 A2995 RMK AO2 SLP142 T01110106
KDCA 252131Z 18003KT 10SM OVC007 12/11 A2997 RMK AO2 T01170111
KDCA 252108Z 00000KT 10SM OVC008 11/11 A2997 RMK AO2 T01110106
KDCA 252052Z 16005KT 9SM OVC007 11/11 A2996 RMK AO2 SLP146 60000 T01110106 58005
KDCA 251952Z 00000KT 10SM OVC007 12/11 A2998 RMK AO2 SLP151 T01170106
KDCA 251852Z 00000KT 10SM OVC007 11/10 A2997 RMK AO2 RAB00E09 SLP148 P0000 T01110100
KDCA 251824Z 00000KT 10SM OVC007 11/10 A2995 RMK AO2 RAB00E09 P0000 T01110100
KDCA 251755Z VRB06KT 10SM OVC009 11/09 A2998 RMK AO2 T01060094
KDCA 251752Z 28006KT 10SM OVC007 11/09 A2998 RMK AO2 RAE47 SLP151 P0001 60016 T01060094 10106 20083 53003
KDCA 251707Z 00000KT 10SM -RA BKN007 BKN011 OVC100 11/09 A2993 RMK AO2 P0000 T01060094
KDCA 251702Z 00000KT 10SM -RA BKN009 OVC100 11/09 A2993 RMK AO2 P0000 T01060094
KDCA 251657Z 00000KT 10SM -RA BKN007 BKN012 OVC100 11/09 A2994 RMK AO2 P0000 T01060094
KDCA 251652Z 00000KT 10SM -RA BKN008 BKN012 OVC100 10/09 A2993 RMK AO2 SLP136 P0000 T01000094
KDCA 251646Z 00000KT 10SM -RA BKN008 OVC100 10/09 A2995 RMK AO2 P0000
KDCA 251615Z 14007KT 10SM -RA SCT006 OVC100 10/09 A2995 RMK AO2 P0000 T01000089
KDCA 251552Z 17005KT 10SM -RA OVC006 10/09 A2997 RMK AO2 PRESFR SLP148 P0001 T01000089
KDCA 251526Z 00000KT 10SM -RA BKN007 OVC100 10/09 A3000 RMK AO2 P0000 T01000089
KDCA 251452Z 00000KT 10SM -RA FEW007 SCT035 OVC100 09/09 A3000 RMK AO2 SLP159 P0003 60014 T00940089 50009
KDCA 251402Z 01003KT 5SM -RA BR SCT007 BKN035 OVC090 09/09 A3002 RMK AO2 P0002 T00940089
KDCA 251354Z COR 03004KT 3SM R01/6000FT RA BR BKN006 BKN032 OVC075 09/09 A3001 RMK AO2 PRESFR P0000 T00940089
KDCA 251352Z 02004KT 2 1/2SM R01/5000VP6000FT RA BR BKN006 OVC032 09/09 A3002 RMK AO2 SLP165 P0011 T00940089
KDCA 251345Z VRB03KT 2 1/2SM R01/3500VP6000FT +RA BR BKN006 OVC029 09/09 A3002 RMK AO2 P0007 T00940089
KDCA 251338Z 32006KT 4SM RA BR OVC006 09/09 A3003 RMK AO2 P0004 T00940089
KDCA 251332Z 31008KT 3SM -RA BR OVC004 09/09 A3005 RMK AO2 P0004 T00890089
KDCA 251327Z 31011G16KT 2SM R01/6000FT RA BR OVC003 09/08 A3005 RMK AO2 PRESRR P0003 T00890083
KDCA 251252Z 11003KT 1 1/2SM R01/6000FT -RA BR OVC003 09/09 A2998 RMK AO2 RAE24B43 SLP153 P0000 T00890089
KDCA 251218Z 10004KT 1 3/4SM -RA BR OVC003 09/09 A2998 RMK AO2 P0000 T00890089
KDCA 251208Z 09004KT 2 1/2SM -RA BR OVC003 09/09 A2998 RMK AO2 P0000 T00890089
KDCA 251152Z 11004KT 1 1/4SM -RA BR OVC003 09/08 A2998 RMK AO2 RAB47 SLP150 P0000 60000 70017 T00890083 10094 20089 56021
KDCA 251130Z 11006KT 1 1/2SM BR OVC003 09/08 A2998 RMK AO2 T00890083
KDCA 251052Z 09004KT 2 1/2SM BR OVC004 09/08 A3000 RMK AO2 SLP157 T00890083
KDCA 251044Z 11003KT 2 1/2SM BR OVC004 09/08 A3001 RMK AO2 T00890083
KDCA 251015Z 10007KT 4SM BR OVC004 09/08 A3000 RMK AO2 T00890083
KDCA 250952Z 08006KT 4SM BR OVC005 09/08 A3001 RMK AO2 SLP162 T00890083
KDCA 250852Z 11004KT 6SM BR OVC007 09/08 A3004 RMK AO2 SLP171 60000 T00890083 56023
KDCA 250817Z 10003KT 7SM OVC007 09/08 A3005 RMK AO2 T00940083
KDCA 250752Z 12005KT 8SM OVC008 09/08 A3005 RMK AO2 RAE03 SLP176 P0000 T00940083
KDCA 250735Z 11005KT 9SM OVC009 09/08 A3005 RMK AO2 RAE03 P0000 T00940083
KDCA 250652Z 09005KT 10SM -RA OVC010 09/08 A3007 RMK AO2 PRESFR SLP182 P0000 T00940083
KDCA 250638Z 09004KT 10SM -RA OVC010 09/08 A3009 RMK AO2 P0000 T00940083
KDCA 250552Z 09006KT 8SM -RA OVC009 09/09 A3010 RMK AO2 SLP194 P0001 60014 T00940089 10106 20094 56014
KDCA 250452Z 05005KT 7SM -RA BKN011 OVC018 09/09 A3012 RMK AO2 SLP200 P0008 T00940089 401170089
KDCA 250352Z 04008KT 4SM RA BR OVC012 10/08 A3013 RMK AO2 SLP201 P0005 T01000083
KDCA 250306Z 02005KT 5SM -RA BR OVC014 10/08 A3015 RMK AO2 P0003 T01000083
KDCA 250258Z 04007KT 3SM +RA BR OVC015 10/08 A3015 RMK AO2 P0001 T01000083
KDCA 250252Z 05006KT 10SM -RA OVC015 10/08 A3015 RMK AO2 RAB22 SLP208 P0000 60000 T01000083 56004
KDCA 250152Z 05005KT 10SM OVC017 10/09 A3015 RMK AO2 RAB37E48 SLP211 P0000 T01000089
KDCA 250059Z 04007KT 10SM OVC015 10/09 A3015 RMK AO2 T01000089
KDCA 250052Z 05008KT 10SM BKN013 OVC018 11/09 A3015 RMK AO2 SLP208 T01060089
KDCA 242352Z 05010KT 10SM OVC013 11/09 A3016 RMK AO2 RAE15 SLP212 P0000 60003 T01060089 10117 20106 53010
KDCA 242338Z 05008KT 10SM BKN014 OVC020 11/09 A3015 RMK AO2 RAE15 P0000 T01060089
KDCA 242312Z 05009KT 10SM -RA SCT012 OVC020 11/09 A3014 RMK AO2 P0000 T01060089
KDCA 242252Z 05009KT 8SM -RA BKN011 OVC020 11/09 A3012 RMK AO2 SLP200 P0000 T01060094
KDCA 242152Z 06012KT 7SM -RA OVC011 11/09 A3012 RMK AO2 SLP198 P0002 T01060094
KDCA 242134Z 06011KT 4SM -RA BR OVC012 11/09 A3011 RMK AO2 P0001 T01060094
KDCA 242101Z 05009KT 7SM -RA OVC011 11/09 A3013 RMK AO2 P0000 T01110094
KDCA 242052Z 05009KT 6SM -RA BR BKN009 OVC016 11/09 A3013 RMK AO2 RAE22B44 SLP202 P0000 60001 T01110094 55008
KDCA 241952Z 05007KT 7SM -RA OVC008 11/10 A3012 RMK AO2 SLP200 P0001 T01110100
KDCA 241940Z 05009KT 7SM -RA OVC008 11/10 A3012 RMK AO2 P0000 T01110100
KDCA 241852Z 01007KT 10SM -RA OVC007 12/11 A3013 RMK AO2 RAB10 SLP204 P0000 T01170106
KDCA 241752Z 36004KT 10SM OVC006 12/11 A3015 RMK AO2 SLP210 T01170106 10117 20100 56008
KDCA 241721Z 06007KT 9SM OVC005 11/11 A3013 RMK AO2 T01110106
KDCA 241652Z 03006KT 7SM OVC004 11/11 A3016 RMK AO2 SLP211 T01110106
KDCA 241629Z 02007KT 3SM BR OVC003 11/11 A3017 RMK AO2 T01060106
KDCA 241552Z 05008KT 1SM R01/P6000FT BR OVC003 11/11 A3016 RMK AO2 SLP212 VIS 3/4V11/4 T01060106
KDCA 241508Z 04005KT 1SM R01/2800V4500FT BR OVC002 11/11 A3017 RMK AO2 VIS 1/2V1 T01060106
KDCA 241503Z 04005KT 1/2SM R01/2200V3500FT FG VV003 11/11 A3018 RMK AO2 T01060106
KDCA 241452Z 03006KT 1/4SM R01/1800V2000FT FG VV003 11/11 A3018 RMK AO2 SLP218 VIS 1/8V1/4 T01060106 51007
KDCA 241414Z 04006KT 1/4SM R01/1800V2000FT FG VV003 11/11 A3018 RMK AO2 VIS 1/8V1/4 T01060106
KDCA 241352Z 04005KT 1/8SM R01/1600V1800FT FG VV003 11/11 A3018 RMK AO2 SLP218 VIS 1/16V1/4 T01060106